sensor_id;sensor_type;location;lat;lon;timestamp;pressure;altitude;pressure_sealevel;temperature;humidity
74958;BME280;63741;42.624;26.276;2023-02-19T00:02:07;99824.56;;;9.23;49.28
74958;BME280;63741;42.624;26.276;2023-02-19T00:04:33;99814.53;;;9.28;49.37
74958;BME280;63741;42.624;26.276;2023-02-19T00:07:00;99812.97;;;9.39;49.31
74958;BME280;63741;42.624;26.276;2023-02-19T00:09:27;99828.38;;;9.19;50.35
74958;BME280;63741;42.624;26.276;2023-02-19T00:11:54;99825.66;;;9.33;48.34
74958;BME280;63741;42.624;26.276;2023-02-19T00:14:21;99808.91;;;9.71;47.59
74958;BME280;63741;42.624;26.276;2023-02-19T00:16:48;99805.13;;;9.62;48.67
74958;BME280;63741;42.624;26.276;2023-02-19T00:19:17;99805.16;;;9.86;47.96
74958;BME280;63741;42.624;26.276;2023-02-19T00:21:46;99805.38;;;9.83;46.90
74958;BME280;63741;42.624;26.276;2023-02-19T00:24:13;99798.09;;;9.87;46.97
74958;BME280;63741;42.624;26.276;2023-02-19T00:26:41;99799.63;;;9.66;47.96
74958;BME280;63741;42.624;26.276;2023-02-19T00:29:12;99796.66;;;9.70;48.85
74958;BME280;63741;42.624;26.276;2023-02-19T00:31:40;99796.81;;;9.93;47.48
74958;BME280;63741;42.624;26.276;2023-02-19T00:34:09;99803.59;;;9.84;47.16
74958;BME280;63741;42.624;26.276;2023-02-19T00:36:37;99803.31;;;9.63;48.03
74958;BME280;63741;42.624;26.276;2023-02-19T00:39:06;99798.63;;;9.79;47.64
74958;BME280;63741;42.624;26.276;2023-02-19T00:41:34;99796.81;;;9.93;46.94
74958;BME280;63741;42.624;26.276;2023-02-19T00:44:04;99795.69;;;10.08;47.12
74958;BME280;63741;42.624;26.276;2023-02-19T00:46:38;99788.09;;;10.03;47.17
74958;BME280;63741;42.624;26.276;2023-02-19T00:49:06;99787.69;;;9.97;46.94
74958;BME280;63741;42.624;26.276;2023-02-19T00:51:36;99791.22;;;10.08;47.45
74958;BME280;63741;42.624;26.276;2023-02-19T00:54:04;99782.03;;;9.77;48.23
74958;BME280;63741;42.624;26.276;2023-02-19T00:56:31;99774.13;;;9.77;47.62
74958;BME280;63741;42.624;26.276;2023-02-19T00:58:59;99764.81;;;9.48;48.93
74958;BME280;63741;42.624;26.276;2023-02-19T01:01:26;99766.28;;;9.52;48.64
74958;BME280;63741;42.624;26.276;2023-02-19T01:03:54;99762.91;;;9.37;48.15
74958;BME280;63741;42.624;26.276;2023-02-19T01:06:21;99770.88;;;9.74;48.46
74958;BME280;63741;42.624;26.276;2023-02-19T01:08:49;99760.81;;;9.42;48.95
74958;BME280;63741;42.624;26.276;2023-02-19T01:11:16;99766.28;;;9.39;49.69
74958;BME280;63741;42.624;26.276;2023-02-19T01:13:44;99763.03;;;9.35;48.36
74958;BME280;63741;42.624;26.276;2023-02-19T01:18:41;99745.06;;;9.41;48.18
74958;BME280;63741;42.624;26.276;2023-02-19T01:21:13;99769.25;;;9.34;49.73
74958;BME280;63741;42.624;26.276;2023-02-19T01:23:40;99733.59;;;9.29;49.50
74958;BME280;63741;42.624;26.276;2023-02-19T01:26:11;99742.44;;;9.15;48.84
74958;BME280;63741;42.624;26.276;2023-02-19T01:28:38;99758.06;;;9.31;50.23
74958;BME280;63741;42.624;26.276;2023-02-19T01:31:07;99739.59;;;9.31;49.96
74958;BME280;63741;42.624;26.276;2023-02-19T01:33:36;99762.75;;;9.64;49.47
74958;BME280;63741;42.624;26.276;2023-02-19T01:36:05;99733.97;;;9.35;49.55
74958;BME280;63741;42.624;26.276;2023-02-19T01:38:32;99741.59;;;9.27;49.24
74958;BME280;63741;42.624;26.276;2023-02-19T01:41:02;99744.38;;;9.62;48.43
74958;BME280;63741;42.624;26.276;2023-02-19T01:43:34;99742.66;;;9.38;49.81
74958;BME280;63741;42.624;26.276;2023-02-19T01:46:20;99753.06;;;9.88;47.57
74958;BME280;63741;42.624;26.276;2023-02-19T01:48:47;99735.75;;;9.48;48.64
74958;BME280;63741;42.624;26.276;2023-02-19T01:51:17;99746.06;;;9.63;48.73
74958;BME280;63741;42.624;26.276;2023-02-19T01:53:50;99718.56;;;9.42;49.20
74958;BME280;63741;42.624;26.276;2023-02-19T01:56:19;99731.47;;;9.34;49.39
74958;BME280;63741;42.624;26.276;2023-02-19T01:58:47;99723.97;;;9.28;48.75
74958;BME280;63741;42.624;26.276;2023-02-19T02:01:14;99721.66;;;9.23;49.42
74958;BME280;63741;42.624;26.276;2023-02-19T02:03:43;99734.44;;;9.04;50.39
74958;BME280;63741;42.624;26.276;2023-02-19T02:06:26;99731.69;;;9.05;50.65
74958;BME280;63741;42.624;26.276;2023-02-19T02:08:57;99736.78;;;8.96;51.25
74958;BME280;63741;42.624;26.276;2023-02-19T02:11:47;99730.03;;;9.04;50.71
74958;BME280;63741;42.624;26.276;2023-02-19T02:14:22;99737.59;;;9.22;50.30
74958;BME280;63741;42.624;26.276;2023-02-19T02:31:37;99747.00;;;8.75;51.38
74958;BME280;63741;42.624;26.276;2023-02-19T02:34:12;99738.56;;;8.70;51.42
74958;BME280;63741;42.624;26.276;2023-02-19T02:36:42;99753.53;;;8.56;51.61
74958;BME280;63741;42.624;26.276;2023-02-19T02:39:16;99743.41;;;8.50;51.78
74958;BME280;63741;42.624;26.276;2023-02-19T02:41:54;99738.25;;;8.49;52.74
74958;BME280;63741;42.624;26.276;2023-02-19T02:44:47;99734.53;;;8.51;53.72
74958;BME280;63741;42.624;26.276;2023-02-19T02:47:53;99750.81;;;8.58;53.01
74958;BME280;63741;42.624;26.276;2023-02-19T02:50:31;99747.63;;;8.66;51.80
74958;BME280;63741;42.624;26.276;2023-02-19T02:53:02;99750.50;;;8.63;53.01
74958;BME280;63741;42.624;26.276;2023-02-19T02:55:51;99748.38;;;8.68;52.68
74958;BME280;63741;42.624;26.276;2023-02-19T02:58:21;99760.81;;;8.53;53.04
74958;BME280;63741;42.624;26.276;2023-02-19T03:00:58;99757.63;;;8.48;53.00
74958;BME280;63741;42.624;26.276;2023-02-19T03:03:45;99758.47;;;8.61;52.24
74958;BME280;63741;42.624;26.276;2023-02-19T03:06:16;99768.31;;;8.72;52.84
74958;BME280;63741;42.624;26.276;2023-02-19T03:08:51;99761.25;;;8.72;51.63
74958;BME280;63741;42.624;26.276;2023-02-19T03:11:20;99780.06;;;8.93;52.13
74958;BME280;63741;42.624;26.276;2023-02-19T03:14:08;99763.88;;;8.72;51.56
74958;BME280;63741;42.624;26.276;2023-02-19T03:17:00;99784.84;;;8.61;52.47
74958;BME280;63741;42.624;26.276;2023-02-19T03:19:51;99778.66;;;8.62;51.68
74958;BME280;63741;42.624;26.276;2023-02-19T03:22:23;99793.28;;;8.53;51.95
74958;BME280;63741;42.624;26.276;2023-02-19T03:25:04;99788.22;;;8.50;52.37
74958;BME280;63741;42.624;26.276;2023-02-19T03:27:51;99796.25;;;8.61;53.10
74958;BME280;63741;42.624;26.276;2023-02-19T03:30:23;99798.03;;;8.48;52.93
74958;BME280;63741;42.624;26.276;2023-02-19T03:32:56;99791.50;;;8.54;52.24
74958;BME280;63741;42.624;26.276;2023-02-19T03:35:35;99795.09;;;8.66;52.21
74958;BME280;63741;42.624;26.276;2023-02-19T03:38:09;99782.47;;;8.71;53.18
74958;BME280;63741;42.624;26.276;2023-02-19T03:43:47;99794.56;;;8.60;52.19
74958;BME280;63741;42.624;26.276;2023-02-19T03:48:59;99789.38;;;8.46;53.78
74958;BME280;63741;42.624;26.276;2023-02-19T03:54:19;99769.66;;;7.98;54.68
74958;BME280;63741;42.624;26.276;2023-02-19T03:56:55;99782.94;;;7.96;54.58
74958;BME280;63741;42.624;26.276;2023-02-19T03:59:48;99783.50;;;8.01;55.71
74958;BME280;63741;42.624;26.276;2023-02-19T04:02:29;99769.66;;;7.98;55.11
74958;BME280;63741;42.624;26.276;2023-02-19T04:05:05;99784.75;;;7.96;54.71
74958;BME280;63741;42.624;26.276;2023-02-19T04:07:38;99803.59;;;8.02;54.86
74958;BME280;63741;42.624;26.276;2023-02-19T04:10:08;99800.00;;;7.91;54.87
74958;BME280;63741;42.624;26.276;2023-02-19T04:12:47;99821.06;;;7.91;55.03
74958;BME280;63741;42.624;26.276;2023-02-19T04:15:20;99819.53;;;8.01;55.62
74958;BME280;63741;42.624;26.276;2023-02-19T04:17:59;99818.06;;;7.82;55.79
74958;BME280;63741;42.624;26.276;2023-02-19T04:20:31;99820.22;;;7.76;56.66
74958;BME280;63741;42.624;26.276;2023-02-19T04:23:00;99806.59;;;7.83;55.28
74958;BME280;63741;42.624;26.276;2023-02-19T04:25:27;99799.16;;;7.76;56.47
74958;BME280;63741;42.624;26.276;2023-02-19T04:27:55;99788.84;;;7.58;56.64
74958;BME280;63741;42.624;26.276;2023-02-19T04:30:22;99799.47;;;7.57;55.61
74958;BME280;63741;42.624;26.276;2023-02-19T04:32:49;99801.81;;;7.62;55.83
74958;BME280;63741;42.624;26.276;2023-02-19T04:35:16;99808.41;;;7.54;55.35
74958;BME280;63741;42.624;26.276;2023-02-19T04:37:43;99828.81;;;7.51;55.43
74958;BME280;63741;42.624;26.276;2023-02-19T04:40:10;99822.22;;;7.58;56.29
74958;BME280;63741;42.624;26.276;2023-02-19T04:42:37;99820.38;;;7.46;55.94
74958;BME280;63741;42.624;26.276;2023-02-19T04:45:04;99808.69;;;7.50;56.12
74958;BME280;63741;42.624;26.276;2023-02-19T04:47:31;99818.75;;;7.43;56.67
74958;BME280;63741;42.624;26.276;2023-02-19T04:49:58;99817.81;;;7.44;55.82
74958;BME280;63741;42.624;26.276;2023-02-19T04:52:25;99807.69;;;7.24;57.13
74958;BME280;63741;42.624;26.276;2023-02-19T04:54:52;99811.53;;;7.32;56.03
74958;BME280;63741;42.624;26.276;2023-02-19T04:57:19;99812.28;;;7.20;56.24
74958;BME280;63741;42.624;26.276;2023-02-19T04:59:46;99812.34;;;7.19;58.13
74958;BME280;63741;42.624;26.276;2023-02-19T05:02:13;99835.84;;;7.22;57.70
74958;BME280;63741;42.624;26.276;2023-02-19T05:04:40;99838.03;;;7.15;57.51
74958;BME280;63741;42.624;26.276;2023-02-19T05:07:07;99846.94;;;7.13;57.20
74958;BME280;63741;42.624;26.276;2023-02-19T05:09:34;99846.34;;;7.07;57.97
74958;BME280;63741;42.624;26.276;2023-02-19T05:12:01;99857.66;;;7.24;58.23
74958;BME280;63741;42.624;26.276;2023-02-19T05:14:28;99847.22;;;7.37;57.82
74958;BME280;63741;42.624;26.276;2023-02-19T05:16:55;99857.09;;;7.62;57.12
74958;BME280;63741;42.624;26.276;2023-02-19T05:19:21;99859.00;;;7.59;57.90
74958;BME280;63741;42.624;26.276;2023-02-19T05:21:48;99854.66;;;7.73;57.68
74958;BME280;63741;42.624;26.276;2023-02-19T05:24:15;99837.50;;;7.94;56.04
74958;BME280;63741;42.624;26.276;2023-02-19T05:26:42;99841.34;;;8.03;55.69
74958;BME280;63741;42.624;26.276;2023-02-19T05:29:11;99846.91;;;7.98;55.94
74958;BME280;63741;42.624;26.276;2023-02-19T05:31:38;99864.88;;;7.92;56.31
74958;BME280;63741;42.624;26.276;2023-02-19T05:34:05;99870.66;;;7.70;56.62
74958;BME280;63741;42.624;26.276;2023-02-19T05:36:32;99865.94;;;7.60;58.16
74958;BME280;63741;42.624;26.276;2023-02-19T05:38:59;99873.38;;;7.82;56.52
74958;BME280;63741;42.624;26.276;2023-02-19T05:41:28;99870.63;;;7.84;55.92
74958;BME280;63741;42.624;26.276;2023-02-19T05:43:59;99871.06;;;8.05;55.93
74958;BME280;63741;42.624;26.276;2023-02-19T05:46:29;99898.47;;;8.29;55.33
74958;BME280;63741;42.624;26.276;2023-02-19T05:48:58;99907.53;;;8.40;54.90
74958;BME280;63741;42.624;26.276;2023-02-19T05:51:26;99903.38;;;8.35;55.33
74958;BME280;63741;42.624;26.276;2023-02-19T05:53:54;99915.16;;;8.44;55.35
74958;BME280;63741;42.624;26.276;2023-02-19T05:56:38;99922.50;;;8.39;54.65
74958;BME280;63741;42.624;26.276;2023-02-19T05:59:14;99925.59;;;8.46;55.80
74958;BME280;63741;42.624;26.276;2023-02-19T06:01:42;99925.19;;;8.52;55.03
74958;BME280;63741;42.624;26.276;2023-02-19T06:04:10;99929.31;;;8.56;55.38
74958;BME280;63741;42.624;26.276;2023-02-19T06:06:37;99923.75;;;8.60;55.67
74958;BME280;63741;42.624;26.276;2023-02-19T06:09:05;99937.75;;;8.75;54.79
74958;BME280;63741;42.624;26.276;2023-02-19T06:11:35;99932.34;;;9.04;54.76
74958;BME280;63741;42.624;26.276;2023-02-19T06:14:02;99935.88;;;9.30;53.17
74958;BME280;63741;42.624;26.276;2023-02-19T06:16:29;99950.25;;;9.64;53.02
74958;BME280;63741;42.624;26.276;2023-02-19T06:19:04;99942.56;;;9.74;52.96
74958;BME280;63741;42.624;26.276;2023-02-19T06:21:36;99947.59;;;10.02;51.82
74958;BME280;63741;42.624;26.276;2023-02-19T06:24:06;99942.81;;;10.20;51.65
74958;BME280;63741;42.624;26.276;2023-02-19T06:26:34;99932.78;;;10.62;51.72
74958;BME280;63741;42.624;26.276;2023-02-19T06:29:01;99934.41;;;10.76;51.38
74958;BME280;63741;42.624;26.276;2023-02-19T06:31:28;99919.41;;;11.11;51.07
74958;BME280;63741;42.624;26.276;2023-02-19T06:33:55;99914.56;;;11.41;50.31
74958;BME280;63741;42.624;26.276;2023-02-19T06:36:23;99929.78;;;11.61;50.46
74958;BME280;63741;42.624;26.276;2023-02-19T06:38:50;99928.38;;;11.91;50.12
74958;BME280;63741;42.624;26.276;2023-02-19T06:41:17;99929.34;;;12.12;49.55
74958;BME280;63741;42.624;26.276;2023-02-19T06:43:44;99936.66;;;12.31;49.43
74958;BME280;63741;42.624;26.276;2023-02-19T06:46:12;99924.75;;;12.03;50.48
74958;BME280;63741;42.624;26.276;2023-02-19T06:48:42;99929.81;;;12.28;48.70
74958;BME280;63741;42.624;26.276;2023-02-19T06:51:15;99925.53;;;12.48;48.67
74958;BME280;63741;42.624;26.276;2023-02-19T06:53:44;99929.75;;;12.94;47.46
74958;BME280;63741;42.624;26.276;2023-02-19T06:56:29;99923.59;;;12.94;48.39
74958;BME280;63741;42.624;26.276;2023-02-19T06:58:58;99921.69;;;12.84;47.82
74958;BME280;63741;42.624;26.276;2023-02-19T07:01:27;99918.78;;;12.87;47.52
74958;BME280;63741;42.624;26.276;2023-02-19T07:03:55;99911.28;;;12.93;47.54
74958;BME280;63741;42.624;26.276;2023-02-19T07:06:23;99924.69;;;13.23;47.16
74958;BME280;63741;42.624;26.276;2023-02-19T07:08:51;99928.28;;;13.54;46.10
74958;BME280;63741;42.624;26.276;2023-02-19T07:11:18;99927.63;;;13.62;45.80
74958;BME280;63741;42.624;26.276;2023-02-19T07:13:45;99931.47;;;13.79;45.61
74958;BME280;63741;42.624;26.276;2023-02-19T07:16:13;99941.19;;;13.89;45.28
74958;BME280;63741;42.624;26.276;2023-02-19T07:18:40;99934.63;;;14.24;45.32
74958;BME280;63741;42.624;26.276;2023-02-19T07:21:09;99929.63;;;14.00;45.50
74958;BME280;63741;42.624;26.276;2023-02-19T07:23:39;99933.94;;;14.41;45.35
74958;BME280;63741;42.624;26.276;2023-02-19T07:26:11;99935.31;;;14.26;44.88
74958;BME280;63741;42.624;26.276;2023-02-19T07:28:46;99931.66;;;14.68;43.72
74958;BME280;63741;42.624;26.276;2023-02-19T07:31:14;99927.16;;;14.68;44.33
74958;BME280;63741;42.624;26.276;2023-02-19T07:33:42;99923.97;;;15.13;44.07
74958;BME280;63741;42.624;26.276;2023-02-19T07:36:10;99920.31;;;15.04;43.00
74958;BME280;63741;42.624;26.276;2023-02-19T07:38:37;99918.53;;;15.05;42.61
74958;BME280;63741;42.624;26.276;2023-02-19T07:41:05;99922.16;;;15.23;42.83
74958;BME280;63741;42.624;26.276;2023-02-19T07:43:34;99908.84;;;15.23;40.85
74958;BME280;63741;42.624;26.276;2023-02-19T07:46:07;99910.22;;;15.27;41.11
74958;BME280;63741;42.624;26.276;2023-02-19T07:48:35;99922.63;;;15.75;41.02
74958;BME280;63741;42.624;26.276;2023-02-19T07:51:04;99919.13;;;15.75;39.16
74958;BME280;63741;42.624;26.276;2023-02-19T07:53:33;99921.78;;;15.75;40.63
74958;BME280;63741;42.624;26.276;2023-02-19T07:56:02;99894.69;;;15.79;41.75
74958;BME280;63741;42.624;26.276;2023-02-19T07:58:30;99901.03;;;16.06;41.22
74958;BME280;63741;42.624;26.276;2023-02-19T08:01:05;99896.13;;;16.01;41.58
74958;BME280;63741;42.624;26.276;2023-02-19T08:03:33;99880.34;;;16.17;41.93
74958;BME280;63741;42.624;26.276;2023-02-19T08:06:01;99881.28;;;16.26;39.92
74958;BME280;63741;42.624;26.276;2023-02-19T08:08:28;99875.81;;;16.63;40.27
74958;BME280;63741;42.624;26.276;2023-02-19T08:10:59;99871.22;;;16.56;39.94
74958;BME280;63741;42.624;26.276;2023-02-19T08:13:46;99870.19;;;16.49;38.73
74958;BME280;63741;42.624;26.276;2023-02-19T08:16:14;99872.41;;;16.71;39.06
74958;BME280;63741;42.624;26.276;2023-02-19T08:19:02;99865.63;;;16.95;39.58
74958;BME280;63741;42.624;26.276;2023-02-19T08:21:29;99874.47;;;16.95;39.66
74958;BME280;63741;42.624;26.276;2023-02-19T08:23:59;99881.63;;;17.12;39.24
74958;BME280;63741;42.624;26.276;2023-02-19T08:26:27;99888.22;;;17.44;39.26
74958;BME280;63741;42.624;26.276;2023-02-19T08:28:53;99880.19;;;17.70;38.30
74958;BME280;63741;42.624;26.276;2023-02-19T08:31:20;99888.03;;;17.46;38.45
74958;BME280;63741;42.624;26.276;2023-02-19T08:33:47;99885.28;;;17.55;38.10
74958;BME280;63741;42.624;26.276;2023-02-19T08:36:14;99884.22;;;17.48;38.33
74958;BME280;63741;42.624;26.276;2023-02-19T08:38:42;99881.44;;;17.32;37.67
74958;BME280;63741;42.624;26.276;2023-02-19T08:41:10;99873.34;;;16.98;37.92
74958;BME280;63741;42.624;26.276;2023-02-19T08:43:41;99873.09;;;16.73;39.13
74958;BME280;63741;42.624;26.276;2023-02-19T08:46:10;99872.41;;;17.07;38.96
74958;BME280;63741;42.624;26.276;2023-02-19T08:48:37;99873.22;;;17.25;38.00
74958;BME280;63741;42.624;26.276;2023-02-19T08:51:07;99876.75;;;17.52;37.14
74958;BME280;63741;42.624;26.276;2023-02-19T08:53:37;99877.81;;;17.93;37.21
74958;BME280;63741;42.624;26.276;2023-02-19T08:56:09;99867.72;;;18.21;35.91
74958;BME280;63741;42.624;26.276;2023-02-19T08:58:36;99859.06;;;18.27;36.42
74958;BME280;63741;42.624;26.276;2023-02-19T09:01:08;99857.56;;;18.33;35.98
74958;BME280;63741;42.624;26.276;2023-02-19T09:03:36;99852.31;;;18.74;35.52
74958;BME280;63741;42.624;26.276;2023-02-19T09:06:03;99844.44;;;18.88;34.54
74958;BME280;63741;42.624;26.276;2023-02-19T09:08:30;99849.78;;;18.97;34.06
74958;BME280;63741;42.624;26.276;2023-02-19T09:10:59;99851.09;;;19.50;31.53
74958;BME280;63741;42.624;26.276;2023-02-19T09:13:26;99830.72;;;19.80;30.76
74958;BME280;63741;42.624;26.276;2023-02-19T09:15:53;99821.97;;;19.86;30.67
74958;BME280;63741;42.624;26.276;2023-02-19T09:18:20;99837.69;;;20.05;29.76
74958;BME280;63741;42.624;26.276;2023-02-19T09:20:47;99821.72;;;20.04;30.19
74958;BME280;63741;42.624;26.276;2023-02-19T09:23:13;99828.25;;;20.09;30.49
74958;BME280;63741;42.624;26.276;2023-02-19T09:25:40;99821.41;;;19.99;29.62
74958;BME280;63741;42.624;26.276;2023-02-19T09:28:08;99823.69;;;19.87;30.47
74958;BME280;63741;42.624;26.276;2023-02-19T09:30:35;99819.84;;;19.73;29.67
74958;BME280;63741;42.624;26.276;2023-02-19T09:33:04;99809.19;;;19.96;29.40
74958;BME280;63741;42.624;26.276;2023-02-19T09:35:31;99812.00;;;20.03;30.10
74958;BME280;63741;42.624;26.276;2023-02-19T09:37:59;99813.63;;;20.12;29.87
74958;BME280;63741;42.624;26.276;2023-02-19T09:40:26;99811.25;;;20.17;29.37
74958;BME280;63741;42.624;26.276;2023-02-19T09:42:53;99818.94;;;20.28;28.83
74958;BME280;63741;42.624;26.276;2023-02-19T09:45:22;99816.09;;;20.22;29.19
74958;BME280;63741;42.624;26.276;2023-02-19T09:47:56;99818.84;;;19.74;29.70
74958;BME280;63741;42.624;26.276;2023-02-19T09:50:33;99818.47;;;18.97;30.43
74958;BME280;63741;42.624;26.276;2023-02-19T09:53:06;99818.59;;;18.55;31.62
74958;BME280;63741;42.624;26.276;2023-02-19T09:55:38;99820.25;;;18.48;31.66
74958;BME280;63741;42.624;26.276;2023-02-19T10:00:49;99799.03;;;19.11;30.75
74958;BME280;63741;42.624;26.276;2023-02-19T10:03:29;99794.63;;;19.35;30.88
74958;BME280;63741;42.624;26.276;2023-02-19T10:06:07;99801.84;;;19.82;29.74
74958;BME280;63741;42.624;26.276;2023-02-19T10:08:40;99800.81;;;20.22;30.03
74958;BME280;63741;42.624;26.276;2023-02-19T10:11:10;99808.44;;;20.41;28.54
74958;BME280;63741;42.624;26.276;2023-02-19T10:13:48;99797.13;;;20.54;28.58
74958;BME280;63741;42.624;26.276;2023-02-19T10:16:20;99787.06;;;20.48;28.79
74958;BME280;63741;42.624;26.276;2023-02-19T10:18:48;99788.69;;;20.26;29.07
74958;BME280;63741;42.624;26.276;2023-02-19T10:21:22;99787.13;;;20.09;29.01
74958;BME280;63741;42.624;26.276;2023-02-19T10:23:53;99779.47;;;19.66;29.49
74958;BME280;63741;42.624;26.276;2023-02-19T10:26:22;99787.38;;;19.43;29.94
74958;BME280;63741;42.624;26.276;2023-02-19T10:28:49;99781.13;;;19.67;29.45
74958;BME280;63741;42.624;26.276;2023-02-19T10:31:21;99775.94;;;20.28;28.55
74958;BME280;63741;42.624;26.276;2023-02-19T10:33:51;99769.13;;;20.17;29.19
74958;BME280;63741;42.624;26.276;2023-02-19T10:36:30;99755.75;;;20.09;29.02
74958;BME280;63741;42.624;26.276;2023-02-19T10:39:00;99749.38;;;19.79;29.50
74958;BME280;63741;42.624;26.276;2023-02-19T10:41:27;99737.59;;;20.34;29.11
74958;BME280;63741;42.624;26.276;2023-02-19T10:44:17;99736.31;;;20.91;28.02
74958;BME280;63741;42.624;26.276;2023-02-19T10:46:49;99737.75;;;21.16;27.27
74958;BME280;63741;42.624;26.276;2023-02-19T10:49:34;99740.63;;;21.30;27.09
74958;BME280;63741;42.624;26.276;2023-02-19T10:52:13;99739.53;;;21.39;27.64
74958;BME280;63741;42.624;26.276;2023-02-19T10:54:44;99739.63;;;21.45;26.81
74958;BME280;63741;42.624;26.276;2023-02-19T10:59:49;99721.03;;;21.65;26.11
74958;BME280;63741;42.624;26.276;2023-02-19T11:02:18;99708.13;;;21.61;26.79
74958;BME280;63741;42.624;26.276;2023-02-19T11:08:14;99709.16;;;21.96;26.67
74958;BME280;63741;42.624;26.276;2023-02-19T11:10:47;99707.59;;;21.87;26.40
74958;BME280;63741;42.624;26.276;2023-02-19T11:13:24;99710.50;;;21.85;26.85
74958;BME280;63741;42.624;26.276;2023-02-19T11:15:53;99705.72;;;22.02;26.41
74958;BME280;63741;42.624;26.276;2023-02-19T11:18:26;99695.94;;;22.16;26.45
74958;BME280;63741;42.624;26.276;2023-02-19T11:20:55;99695.59;;;22.26;26.08
74958;BME280;63741;42.624;26.276;2023-02-19T11:26:04;99684.94;;;22.39;26.26
74958;BME280;63741;42.624;26.276;2023-02-19T11:28:34;99677.09;;;22.44;25.90
74958;BME280;63741;42.624;26.276;2023-02-19T11:31:26;99677.47;;;22.41;25.91
74958;BME280;63741;42.624;26.276;2023-02-19T11:38:48;99666.16;;;22.24;25.85
74958;BME280;63741;42.624;26.276;2023-02-19T12:14:57;99633.72;;;21.38;26.58
74958;BME280;63741;42.624;26.276;2023-02-19T12:26:17;99651.47;;;21.48;27.19
74958;BME280;63741;42.624;26.276;2023-02-19T12:37:31;99638.84;;;21.33;27.17
74958;BME280;63741;42.624;26.276;2023-02-19T12:45:35;99630.66;;;21.78;27.54
74958;BME280;63741;42.624;26.276;2023-02-19T12:48:30;99618.03;;;21.78;27.38
74958;BME280;63741;42.624;26.276;2023-02-19T12:51:18;99629.81;;;21.77;26.85
74958;BME280;63741;42.624;26.276;2023-02-19T12:56:32;99620.00;;;21.69;26.87
74958;BME280;63741;42.624;26.276;2023-02-19T13:01:44;99631.22;;;21.73;27.43
74958;BME280;63741;42.624;26.276;2023-02-19T13:04:35;99632.16;;;21.80;27.66
74958;BME280;63741;42.624;26.276;2023-02-19T13:07:13;99633.44;;;22.06;27.22
74958;BME280;63741;42.624;26.276;2023-02-19T13:12:41;99632.41;;;22.07;26.67
74958;BME280;63741;42.624;26.276;2023-02-19T13:15:36;99619.66;;;22.15;26.61
74958;BME280;63741;42.624;26.276;2023-02-19T13:18:10;99619.25;;;22.18;27.54
74958;BME280;63741;42.624;26.276;2023-02-19T13:20:43;99611.16;;;22.18;27.23
74958;BME280;63741;42.624;26.276;2023-02-19T13:26:25;99621.47;;;22.36;27.30
74958;BME280;63741;42.624;26.276;2023-02-19T13:37:02;99603.75;;;22.20;27.57
74958;BME280;63741;42.624;26.276;2023-02-19T13:39:30;99606.22;;;22.22;26.66
74958;BME280;63741;42.624;26.276;2023-02-19T13:41:57;99609.44;;;22.11;26.96
74958;BME280;63741;42.624;26.276;2023-02-19T13:44:26;99600.25;;;22.05;27.60
74958;BME280;63741;42.624;26.276;2023-02-19T13:46:54;99594.03;;;22.05;28.02
74958;BME280;63741;42.624;26.276;2023-02-19T13:54:34;99588.97;;;21.95;27.42
74958;BME280;63741;42.624;26.276;2023-02-19T13:59:52;99593.03;;;22.06;27.55
74958;BME280;63741;42.624;26.276;2023-02-19T14:04:49;99592.91;;;21.71;27.21
74958;BME280;63741;42.624;26.276;2023-02-19T14:09:45;99594.25;;;21.82;27.41
74958;BME280;63741;42.624;26.276;2023-02-19T14:14:53;99587.97;;;21.75;27.24
74958;BME280;63741;42.624;26.276;2023-02-19T14:17:42;99584.50;;;21.81;27.14
74958;BME280;63741;42.624;26.276;2023-02-19T14:25:41;99581.06;;;21.65;28.41
74958;BME280;63741;42.624;26.276;2023-02-19T14:33:17;99585.41;;;21.30;28.39
74958;BME280;63741;42.624;26.276;2023-02-19T14:35:46;99583.38;;;21.32;28.32
74958;BME280;63741;42.624;26.276;2023-02-19T14:41:26;99581.88;;;21.44;28.03
74958;BME280;63741;42.624;26.276;2023-02-19T14:43:57;99584.19;;;21.48;27.89
74958;BME280;63741;42.624;26.276;2023-02-19T14:46:40;99577.22;;;21.38;28.08
74958;BME280;63741;42.624;26.276;2023-02-19T14:51:57;99580.16;;;20.92;29.41
74958;BME280;63741;42.624;26.276;2023-02-19T14:54:38;99580.94;;;20.86;29.31
74958;BME280;63741;42.624;26.276;2023-02-19T14:57:23;99578.31;;;20.93;28.96
74958;BME280;63741;42.624;26.276;2023-02-19T15:02:25;99579.25;;;20.70;29.50
74958;BME280;63741;42.624;26.276;2023-02-19T15:04:53;99573.38;;;20.37;30.16
74958;BME280;63741;42.624;26.276;2023-02-19T15:07:27;99574.84;;;20.25;30.62
74958;BME280;63741;42.624;26.276;2023-02-19T15:10:03;99576.59;;;20.18;30.99
74958;BME280;63741;42.624;26.276;2023-02-19T15:12:34;99584.72;;;20.10;31.25
74958;BME280;63741;42.624;26.276;2023-02-19T15:15:06;99582.81;;;19.95;31.51
74958;BME280;63741;42.624;26.276;2023-02-19T15:17:34;99583.31;;;19.76;31.56
74958;BME280;63741;42.624;26.276;2023-02-19T15:20:10;99571.53;;;19.54;32.20
74958;BME280;63741;42.624;26.276;2023-02-19T15:22:39;99573.66;;;19.36;32.59
74958;BME280;63741;42.624;26.276;2023-02-19T15:25:18;99568.72;;;19.25;33.17
74958;BME280;63741;42.624;26.276;2023-02-19T15:27:46;99568.44;;;19.42;32.87
74958;BME280;63741;42.624;26.276;2023-02-19T15:30:25;99571.47;;;19.08;33.41
74958;BME280;63741;42.624;26.276;2023-02-19T15:32:59;99576.38;;;18.97;33.68
74958;BME280;63741;42.624;26.276;2023-02-19T15:35:28;99575.09;;;18.84;33.47
74958;BME280;63741;42.624;26.276;2023-02-19T15:37:55;99574.09;;;18.85;34.09
74958;BME280;63741;42.624;26.276;2023-02-19T15:40:29;99576.25;;;18.90;33.93
74958;BME280;63741;42.624;26.276;2023-02-19T15:42:57;99585.38;;;19.12;33.43
74958;BME280;63741;42.624;26.276;2023-02-19T15:45:30;99584.31;;;18.82;34.28
74958;BME280;63741;42.624;26.276;2023-02-19T15:48:07;99583.91;;;18.46;34.82
74958;BME280;63741;42.624;26.276;2023-02-19T15:50:35;99578.22;;;18.49;34.90